Time;durP1;ratioP1;P1;durP2;ratioP2;P2;SDS_P1;SDS_P2;PMS_P1;PMS_P2;Temp;Humidity;BMP_temperature;BMP_pressure;BME280_temperature;BME280_humidity;BME280_pressure;Samples;Min_cycle;Max_cycle;Signal;HPM_P1;HPM_P2
2023/10/11 00:02:56;;;;;;;13.97;4.40;;;16.10;1.00;;;;;;5034645;28;20258;-78
2023/10/11 00:05:22;;;;;;;8.57;4.27;;;16.10;1.00;;;;;;5017141;28;20212;-80
2023/10/11 00:07:48;;;;;;;9.10;4.20;;;16.00;1.00;;;;;;5017207;28;20570;-79
2023/10/11 00:10:22;;;;;;;9.00;4.33;;;15.90;1.00;;;;;;5016902;28;20655;-79
2023/10/11 00:12:50;;;;;;;9.67;4.33;;;16.00;1.00;;;;;;5034280;28;20180;-79
2023/10/11 00:15:16;;;;;;;8.83;4.50;;;16.00;1.00;;;;;;5034635;28;20166;-80
2023/10/11 00:17:46;;;;;;;7.07;3.90;;;15.90;1.00;;;;;;5016908;28;20198;-80
2023/10/11 00:20:28;;;;;;;7.43;4.43;;;15.90;1.00;;;;;;5034522;28;20229;-80
2023/10/11 00:22:54;;;;;;;9.20;4.53;;;15.80;1.00;;;;;;5034226;28;20673;-80
2023/10/11 00:25:27;;;;;;;8.27;4.30;;;15.80;1.00;;;;;;5034359;28;20643;-79
2023/10/11 00:27:58;;;;;;;8.07;4.27;;;15.80;1.00;;;;;;5034424;28;20197;-79
2023/10/11 00:30:25;;;;;;;7.07;4.13;;;15.80;1.00;;;;;;5016413;28;20181;-80
2023/10/11 00:32:54;;;;;;;6.97;4.27;;;15.70;1.00;;;;;;5015938;28;20575;-80
2023/10/11 00:35:24;;;;;;;9.93;4.73;;;15.70;1.00;;;;;;5016396;28;20597;-79
2023/10/11 00:37:51;;;;;;;10.40;4.60;;;15.60;1.00;;;;;;5034492;28;20167;-79
2023/10/11 00:40:27;;;;;;;8.07;4.50;;;15.50;1.00;;;;;;5016523;28;20198;-79
2023/10/11 00:42:57;;;;;;;6.73;4.50;;;15.50;1.00;;;;;;5033814;28;20190;-79
2023/10/11 00:45:23;;;;;;;8.27;4.47;;;15.50;1.00;;;;;;5016265;28;20171;-79
2023/10/11 00:47:51;;;;;;;8.90;4.13;;;15.50;1.00;;;;;;5034332;28;20170;-79
2023/10/11 00:50:18;;;;;;;7.47;4.07;;;15.50;1.00;;;;;;5016333;28;20183;-79
2023/10/11 00:52:47;;;;;;;10.33;4.17;;;15.50;1.00;;;;;;5032999;28;20186;-79
2023/10/11 00:55:21;;;;;;;10.10;4.43;;;15.50;1.00;;;;;;5033211;28;20282;-80
2023/10/11 00:57:49;;;;;;;8.57;4.33;;;15.50;1.00;;;;;;5088008;23;20226;-83
2023/10/11 01:00:23;;;;;;;5.17;3.80;;;15.50;7.90;;;;;;5020075;28;20167;-83
2023/10/11 01:02:52;;;;;;;7.67;3.77;;;15.40;78.30;;;;;;5037430;28;20237;-83
2023/10/11 01:05:22;;;;;;;6.83;4.33;;;15.40;29.70;;;;;;5020354;28;20673;-83
2023/10/11 01:07:51;;;;;;;9.63;4.17;;;15.40;19.90;;;;;;5020336;28;20205;-83
2023/10/11 01:10:18;;;;;;;9.83;4.27;;;15.40;36.20;;;;;;5038024;28;20217;-85
2023/10/11 01:12:43;;;;;;;9.93;4.63;;;15.40;1.00;;;;;;5019376;28;20209;-83
2023/10/11 01:15:12;;;;;;;7.30;4.03;;;15.50;1.00;;;;;;5037489;28;20533;-83
2023/10/11 01:17:38;;;;;;;6.70;4.00;;;15.60;1.00;;;;;;5037962;28;20186;-83
2023/10/11 01:20:14;;;;;;;8.73;3.87;;;15.60;1.00;;;;;;5037903;28;20580;-83
2023/10/11 01:22:43;;;;;;;7.17;4.13;;;15.60;1.00;;;;;;5018801;28;20163;-83
2023/10/11 01:25:18;;;;;;;7.07;3.90;;;15.60;1.00;;;;;;5019792;28;20175;-83
2023/10/11 01:27:45;;;;;;;10.77;4.20;;;15.50;1.00;;;;;;5019881;28;20196;-83
2023/10/11 01:30:11;;;;;;;8.00;4.33;;;15.50;57.90;;;;;;5037889;28;20175;-83
2023/10/11 01:32:37;;;;;;;7.67;4.10;;;15.40;38.90;;;;;;5036635;28;20242;-83
2023/10/11 01:35:04;;;;;;;6.67;4.17;;;15.40;92.50;;;;;;5037231;28;20254;-83
2023/10/11 01:37:36;;;;;;;7.93;4.13;;;15.30;99.90;;;;;;5020124;28;20190;-83
2023/10/11 01:40:07;;;;;;;5.80;4.13;;;15.30;95.00;;;;;;5037168;28;20674;-83
2023/10/11 01:42:34;;;;;;;7.87;3.93;;;15.20;99.90;;;;;;5036938;28;20170;-83
2023/10/11 01:45:00;;;;;;;7.07;4.07;;;15.10;99.90;;;;;;5037926;28;20170;-84
2023/10/11 01:47:26;;;;;;;6.77;4.47;;;15.10;99.90;;;;;;5019588;28;20221;-83
2023/10/11 01:49:52;;;;;;;6.60;4.00;;;15.00;99.90;;;;;;5036751;28;20232;-83
2023/10/11 01:52:18;;;;;;;7.47;4.10;;;15.00;99.90;;;;;;5018713;28;20233;-83
2023/10/11 01:54:44;;;;;;;6.20;4.13;;;14.90;99.90;;;;;;5019546;28;20170;-83
2023/10/11 01:57:10;;;;;;;7.60;4.30;;;14.90;99.90;;;;;;5038034;28;20236;-83
2023/10/11 01:59:35;;;;;;;7.57;4.10;;;14.90;99.90;;;;;;5037333;28;20198;-83
2023/10/11 02:02:03;;;;;;;7.90;3.90;;;14.80;99.90;;;;;;5019084;28;20186;-83
2023/10/11 02:04:30;;;;;;;6.10;3.83;;;14.90;99.90;;;;;;5019249;28;20185;-83
2023/10/11 02:06:57;;;;;;;8.53;4.07;;;14.80;99.90;;;;;;5019039;28;20229;-83
2023/10/11 02:09:23;;;;;;;8.37;3.90;;;14.80;99.90;;;;;;5019441;28;20189;-83
2023/10/11 02:11:52;;;;;;;6.70;4.27;;;14.90;99.90;;;;;;5036558;28;20297;-83
2023/10/11 02:14:19;;;;;;;6.47;3.50;;;14.90;99.90;;;;;;5018903;28;20175;-83
2023/10/11 02:16:45;;;;;;;6.40;4.27;;;14.90;99.90;;;;;;5018955;28;20289;-83
2023/10/11 02:19:15;;;;;;;7.50;4.10;;;14.80;99.90;;;;;;5037247;28;20213;-83
2023/10/11 02:21:44;;;;;;;6.47;4.00;;;14.70;99.90;;;;;;5037009;28;20666;-83
2023/10/11 02:24:11;;;;;;;10.97;4.20;;;14.70;99.90;;;;;;5019451;28;20231;-83
2023/10/11 02:26:36;;;;;;;6.83;3.73;;;14.70;99.90;;;;;;5018793;28;20258;-83
2023/10/11 02:29:21;;;;;;;6.17;3.93;;;14.70;99.90;;;;;;5019215;28;20213;-83
2023/10/11 02:31:52;;;;;;;7.77;4.43;;;14.70;99.90;;;;;;5017809;28;20201;-85
2023/10/11 02:34:19;;;;;;;7.60;3.83;;;14.80;99.90;;;;;;5037403;28;20189;-83
2023/10/11 02:36:56;;;;;;;7.77;3.97;;;14.80;99.90;;;;;;5036659;28;20198;-83
2023/10/11 02:39:31;;;;;;;6.47;3.90;;;14.90;99.90;;;;;;5037009;28;20202;-82
2023/10/11 02:41:57;;;;;;;7.00;3.50;;;15.00;36.00;;;;;;5018974;28;20205;-85
2023/10/11 02:44:23;;;;;;;9.60;4.20;;;15.10;58.70;;;;;;5019183;28;20185;-84
2023/10/11 02:46:49;;;;;;;9.03;4.23;;;15.20;8.70;;;;;;5036298;28;20684;-83
2023/10/11 02:49:21;;;;;;;6.17;3.60;;;15.30;1.00;;;;;;5018812;28;20199;-85
2023/10/11 02:51:56;;;;;;;7.13;3.60;;;15.30;1.00;;;;;;5018415;28;20597;-84
2023/10/11 02:54:34;;;;;;;7.33;4.03;;;15.40;1.00;;;;;;5036385;28;20178;-84
2023/10/11 02:57:06;;;;;;;6.60;3.73;;;15.40;1.00;;;;;;5018363;28;20225;-82
2023/10/11 02:59:33;;;;;;;5.57;3.83;;;15.50;1.00;;;;;;5036548;28;20171;-83
2023/10/11 03:01:59;;;;;;;7.63;3.90;;;15.60;1.00;;;;;;5018265;28;20174;-83
2023/10/11 03:04:28;;;;;;;6.27;3.80;;;15.50;1.00;;;;;;5036714;28;20269;-83
2023/10/11 03:06:53;;;;;;;8.00;3.70;;;15.50;1.00;;;;;;5018885;28;20194;-83
2023/10/11 03:09:19;;;;;;;5.00;3.50;;;15.50;1.00;;;;;;5035996;28;20182;-82
2023/10/11 03:11:45;;;;;;;6.87;3.83;;;15.60;1.00;;;;;;5018114;28;20202;-82
2023/10/11 03:14:15;;;;;;;6.00;3.70;;;15.60;1.00;;;;;;5037034;28;20204;-82
2023/10/11 03:16:43;;;;;;;9.20;3.97;;;15.60;1.00;;;;;;5036995;28;20221;-83
2023/10/11 03:19:11;;;;;;;7.47;3.70;;;15.50;1.00;;;;;;5021535;28;20189;-83
2023/10/11 03:21:37;;;;;;;8.40;3.40;;;15.50;1.00;;;;;;5040108;28;20647;-83
2023/10/11 03:24:06;;;;;;;8.30;3.87;;;15.50;1.00;;;;;;5022228;28;20185;-83
2023/10/11 03:26:32;;;;;;;5.23;3.53;;;15.40;1.00;;;;;;5039831;28;20195;-83
2023/10/11 03:29:17;;;;;;;6.73;3.60;;;15.50;1.00;;;;;;5039869;28;20176;-83
2023/10/11 03:31:43;;;;;;;6.30;3.43;;;15.50;1.00;;;;;;5039216;28;20194;-83
2023/10/11 03:34:14;;;;;;;7.17;3.97;;;15.50;1.00;;;;;;5039574;28;20242;-83
2023/10/11 03:36:44;;;;;;;7.43;3.63;;;15.40;1.00;;;;;;5022113;28;20217;-83
2023/10/11 03:39:15;;;;;;;7.83;4.07;;;15.50;1.00;;;;;;5021283;28;20248;-82
2023/10/11 03:41:46;;;;;;;6.23;3.83;;;15.50;1.00;;;;;;5039478;28;20186;-84
2023/10/11 03:44:17;;;;;;;5.83;3.57;;;15.50;1.00;;;;;;5040467;28;20175;-83
2023/10/11 03:46:47;;;;;;;6.37;3.53;;;15.50;1.00;;;;;;5020251;28;20305;-84
2023/10/11 03:49:35;;;;;;;7.13;3.90;;;15.50;1.00;;;;;;5040637;28;20261;-83
2023/10/11 03:51:58;;;;;;;6.67;3.87;;;15.50;1.00;;;;;;5038557;28;20546;-83
2023/10/11 03:54:24;;;;;;;6.57;3.80;;;15.50;1.00;;;;;;5040026;28;20704;-83
2023/10/11 03:56:53;;;;;;;7.40;3.40;;;15.60;1.00;;;;;;5020902;28;20694;-83
2023/10/11 03:59:26;;;;;;;6.30;4.00;;;15.70;1.00;;;;;;5039521;28;20182;-83
2023/10/11 04:01:58;;;;;;;8.00;3.70;;;15.70;1.00;;;;;;5020519;28;20186;-83
2023/10/11 04:04:24;;;;;;;6.30;3.73;;;15.60;1.00;;;;;;5039808;28;20205;-83
2023/10/11 04:06:51;;;;;;;9.03;3.80;;;15.60;1.00;;;;;;5020781;28;20202;-83
2023/10/11 04:09:38;;;;;;;5.90;3.53;;;15.50;1.00;;;;;;5021059;28;20216;-83
2023/10/11 04:12:05;;;;;;;6.00;3.73;;;15.50;1.00;;;;;;5038591;28;20205;-83
2023/10/11 04:14:39;;;;;;;;;;;;;;;;;;;;;
2023/10/11 04:19:48;;;;;;;8.40;3.73;;;15.50;1.00;;;;;;5039600;28;20163;-83
2023/10/11 04:22:17;;;;;;;9.40;3.87;;;15.50;1.00;;;;;;5038352;28;20673;-83
2023/10/11 04:24:45;;;;;;;5.23;3.53;;;15.60;1.00;;;;;;5039225;28;20170;-83
2023/10/11 04:29:47;;;;;;;6.23;3.23;;;15.60;1.00;;;;;;5037238;28;20300;-84
2023/10/11 04:32:19;;;;;;;7.93;3.73;;;15.60;1.00;;;;;;5037711;28;20712;-83
2023/10/11 04:34:48;;;;;;;6.77;3.53;;;15.60;1.00;;;;;;5038590;28;20228;-83
2023/10/11 04:37:27;;;;;;;8.70;3.60;;;15.50;1.00;;;;;;5038706;28;20579;-83
2023/10/11 04:39:56;;;;;;;5.93;3.40;;;15.50;1.00;;;;;;5038642;28;20200;-83
2023/10/11 04:42:28;;;;;;;7.00;3.50;;;15.60;1.00;;;;;;5020438;28;20183;-84
2023/10/11 04:44:57;;;;;;;7.57;3.63;;;15.60;1.00;;;;;;5038355;28;20198;-83
2023/10/11 04:47:23;;;;;;;7.27;3.73;;;15.60;1.00;;;;;;5019930;28;20249;-83
2023/10/11 04:49:52;;;;;;;6.60;3.40;;;15.60;1.00;;;;;;5038927;28;20174;-83
2023/10/11 04:52:25;;;;;;;6.63;3.50;;;15.60;1.00;;;;;;5020372;28;20202;-83
2023/10/11 04:54:54;;;;;;;5.13;3.53;;;15.60;1.00;;;;;;5020185;28;20560;-84
2023/10/11 04:57:40;;;;;;;5.57;3.47;;;15.50;1.00;;;;;;5038670;28;20214;-82
2023/10/11 05:00:09;;;;;;;4.87;3.63;;;15.40;1.00;;;;;;5019710;28;20604;-83
2023/10/11 05:02:36;;;;;;;6.97;3.73;;;15.30;1.00;;;;;;5037983;28;20201;-83
2023/10/11 05:05:05;;;;;;;7.40;3.60;;;15.30;1.00;;;;;;5037930;28;20212;-83
2023/10/11 05:07:32;;;;;;;7.93;3.53;;;15.20;1.00;;;;;;5037871;28;20198;-83
2023/10/11 05:10:15;;;;;;;9.00;4.07;;;15.20;1.00;;;;;;5020672;28;20178;-83
2023/10/11 05:12:41;;;;;;;7.63;3.70;;;15.10;1.00;;;;;;5017772;28;20213;-80
2023/10/11 05:15:07;;;;;;;7.00;3.77;;;15.10;1.00;;;;;;5035800;28;20232;-81
2023/10/11 05:17:38;;;;;;;6.43;3.87;;;15.00;1.00;;;;;;5018409;28;20190;-83
2023/10/11 05:25:39;;;;;;;;;;;;;;;;;;;;;
2023/10/11 05:27:57;;;;;;;5.93;3.57;;;14.60;99.90;;;;;;5036803;28;20209;-81
2023/10/11 05:51:28;;;;;;;5.47;3.47;;;14.20;99.90;;;;;;5035052;28;20728;-82
2023/10/11 05:53:54;;;;;;;4.60;3.20;;;14.10;99.90;;;;;;5017745;28;20238;-83
2023/10/11 05:56:20;;;;;;;6.40;3.90;;;14.20;99.90;;;;;;5017076;28;20301;-83
2023/10/11 05:58:51;;;;;;;9.33;3.50;;;14.20;99.90;;;;;;5017316;28;20202;-83
2023/10/11 06:01:21;;;;;;;4.83;3.70;;;14.10;99.90;;;;;;5017102;28;20701;-81
2023/10/11 06:03:55;;;;;;;6.03;3.60;;;14.10;99.90;;;;;;5017732;28;20193;-82
2023/10/11 06:06:32;;;;;;;10.70;4.00;;;14.10;99.90;;;;;;5035687;28;20581;-81
2023/10/11 06:08:58;;;;;;;8.43;4.03;;;14.10;99.90;;;;;;5018561;28;20184;-78
2023/10/11 06:11:29;;;;;;;6.47;4.00;;;14.10;99.90;;;;;;5016886;28;20202;-81
2023/10/11 06:14:04;;;;;;;5.40;3.47;;;14.10;99.90;;;;;;5016754;28;20178;-81
2023/10/11 06:16:37;;;;;;;6.40;3.53;;;14.00;99.90;;;;;;5032474;28;20271;-81
2023/10/11 06:19:16;;;;;;;6.70;3.50;;;14.00;99.90;;;;;;5014356;28;20182;-83
2023/10/11 06:21:57;;;;;;;7.50;3.90;;;14.00;99.90;;;;;;5015516;28;20182;-82
2023/10/11 06:24:33;;;;;;;7.13;3.50;;;14.00;99.90;;;;;;5009447;28;20174;-81
2023/10/11 06:28:09;;;;;;;7.27;4.00;;;14.00;99.90;;;;;;5034230;28;20210;-81
2023/10/11 06:30:09;;;;;;;7.53;3.47;;;14.00;99.90;;;;;;5033711;28;20189;-81
2023/10/11 06:32:36;;;;;;;7.40;3.60;;;14.00;99.90;;;;;;5015478;28;20202;-83
2023/10/11 06:35:04;;;;;;;8.43;3.67;;;13.90;99.90;;;;;;5016247;28;20664;-81
2023/10/11 06:37:34;;;;;;;6.13;3.57;;;14.00;99.90;;;;;;5033527;28;20190;-81
2023/10/11 06:40:07;;;;;;;;;;;;;;;;;;;;;
2023/10/11 06:42:31;;;;;;;8.87;3.50;;;14.10;99.90;;;;;;5034149;28;20248;-81
2023/10/11 06:45:02;;;;;;;8.80;3.80;;;14.20;99.90;;;;;;5017239;28;20190;-81
2023/10/11 06:47:33;;;;;;;8.23;3.53;;;14.40;99.90;;;;;;5034311;28;20226;-83
2023/10/11 06:50:10;;;;;;;6.43;3.80;;;14.50;99.90;;;;;;5016601;28;20185;-82
2023/10/11 06:52:43;;;;;;;5.93;3.70;;;14.60;99.90;;;;;;5016648;28;20209;-82
2023/10/11 06:55:15;;;;;;;7.23;3.80;;;14.70;99.90;;;;;;5037601;28;20150;-81
2023/10/11 06:57:45;;;;;;;6.67;3.60;;;14.70;99.90;;;;;;5098928;23;20317;-79
2023/10/11 07:00:20;;;;;;;7.30;3.50;;;14.80;99.90;;;;;;5055421;28;20173;-79
2023/10/11 07:03:06;;;;;;;5.87;3.27;;;14.90;99.90;;;;;;5053564;28;20619;-79
2023/10/11 07:05:42;;;;;;;5.83;3.50;;;15.00;96.10;;;;;;5054121;28;20562;-79
2023/10/11 07:08:09;;;;;;;6.17;3.90;;;15.10;22.40;;;;;;5055234;28;20208;-78
2023/10/11 07:10:35;;;;;;;7.23;4.17;;;15.10;42.10;;;;;;5053796;28;20178;-81
2023/10/11 07:13:05;;;;;;;6.33;3.57;;;15.20;49.00;;;;;;5054761;28;20211;-79
2023/10/11 07:15:46;;;;;;;7.73;3.43;;;15.20;59.20;;;;;;5053901;28;20174;-79
2023/10/11 07:18:25;;;;;;;5.47;3.30;;;15.30;29.90;;;;;;5054900;28;20177;-76
2023/10/11 07:21:07;;;;;;;7.30;3.50;;;15.40;12.90;;;;;;5053414;28;20189;-79
2023/10/11 07:23:56;;;;;;;5.47;3.17;;;15.50;12.70;;;;;;5053733;28;20166;-80
2023/10/11 07:28:58;;;;;;;6.80;3.67;;;15.70;1.00;;;;;;5055124;28;20169;-79
2023/10/11 07:34:09;;;;;;;5.80;3.23;;;16.00;1.00;;;;;;5055181;28;20215;-79
2023/10/11 07:36:37;;;;;;;5.27;3.40;;;16.20;1.00;;;;;;5053387;28;20193;-78
2023/10/11 07:39:14;;;;;;;6.87;3.70;;;16.30;1.00;;;;;;5054746;28;20174;-79
2023/10/11 07:41:42;;;;;;;6.50;3.50;;;16.40;1.00;;;;;;5054056;28;20189;-78
2023/10/11 07:44:08;;;;;;;8.30;3.70;;;16.50;1.00;;;;;;5054508;28;20594;-78
2023/10/11 07:46:37;;;;;;;5.83;3.53;;;16.60;1.00;;;;;;5054403;28;20253;-79
2023/10/11 07:49:04;;;;;;;7.40;3.73;;;16.60;1.00;;;;;;5054435;28;20638;-81
2023/10/11 07:51:35;;;;;;;7.57;3.60;;;16.80;1.00;;;;;;5052667;28;20205;-79
2023/10/11 07:54:06;;;;;;;8.20;3.80;;;16.90;1.00;;;;;;5054535;28;20177;-78
2023/10/11 07:56:38;;;;;;;5.63;3.30;;;17.00;1.00;;;;;;5054475;28;20198;-79
2023/10/11 07:59:08;;;;;;;6.47;3.07;;;17.10;1.00;;;;;;5053210;28;20260;-80
2023/10/11 08:01:42;;;;;;;6.57;3.60;;;17.20;1.00;;;;;;5053880;28;20166;-79
2023/10/11 08:04:17;;;;;;;9.87;3.87;;;17.40;1.00;;;;;;5054223;28;20185;-79
2023/10/11 08:06:44;;;;;;;7.47;3.63;;;17.60;99.90;;;;;;5054239;28;20254;-79
2023/10/11 08:09:18;;;;;;;7.73;3.40;;;17.70;99.90;;;;;;5054109;28;20182;-80
2023/10/11 08:11:45;;;;;;;8.40;3.43;;;17.80;99.90;;;;;;5053471;28;20202;-80
2023/10/11 08:15:04;;;;;;;7.07;3.50;;;17.90;99.90;;;;;;5052819;28;20170;-79
2023/10/11 08:17:37;;;;;;;6.97;3.30;;;18.00;1.00;;;;;;5052715;28;20217;-79
2023/10/11 08:23:50;;;;;;;6.37;3.37;;;18.40;99.90;;;;;;5054148;28;20196;-79
2023/10/11 08:26:17;;;;;;;9.63;3.60;;;18.50;99.90;;;;;;5054154;28;20170;-79
2023/10/11 08:28:49;;;;;;;5.80;3.17;;;18.60;1.00;;;;;;5052564;28;20174;-79
2023/10/11 08:31:27;;;;;;;6.77;3.50;;;18.70;99.90;;;;;;5051824;28;20682;-79
2023/10/11 08:33:53;;;;;;;6.17;3.40;;;18.70;1.00;;;;;;5053876;28;20645;-78
2023/10/11 08:36:22;;;;;;;6.43;3.27;;;18.80;99.90;;;;;;5052284;28;20169;-79
2023/10/11 08:38:53;;;;;;;6.97;4.43;;;18.70;99.90;;;;;;5052510;28;20563;-78
2023/10/11 08:41:22;;;;;;;7.67;3.20;;;18.70;4.10;;;;;;5053117;28;20185;-79
2023/10/11 08:43:49;;;;;;;7.57;3.50;;;18.80;99.90;;;;;;5053774;28;20189;-78
2023/10/11 08:46:18;;;;;;;7.80;3.40;;;18.90;1.00;;;;;;5052060;28;20174;-79
2023/10/11 08:48:49;;;;;;;11.80;3.83;;;18.90;99.90;;;;;;5053318;28;20211;-79
2023/10/11 08:51:21;;;;;;;5.97;3.17;;;19.00;1.00;;;;;;5051856;28;20284;-79
2023/10/11 08:53:47;;;;;;;10.63;3.47;;;19.10;1.00;;;;;;5052380;28;20237;-79
2023/10/11 08:56:14;;;;;;;8.70;3.95;;;19.20;50.70;;;;;;5051885;28;20176;-81
2023/10/11 08:58:51;;;;;;;9.02;3.60;;;19.10;99.90;;;;;;5053828;28;20181;-79
2023/10/11 09:01:17;;;;;;;6.93;3.50;;;19.10;99.90;;;;;;5053139;28;20177;-78
2023/10/11 09:03:42;;;;;;;6.82;3.60;;;19.20;1.00;;;;;;5053310;28;20176;-79
2023/10/11 09:06:22;;;;;;;6.40;3.63;;;19.20;1.00;;;;;;5052027;28;20219;-79
2023/10/11 09:08:48;;;;;;;7.32;3.55;;;19.20;1.00;;;;;;5051980;28;20177;-79
2023/10/11 09:11:28;;;;;;;5.43;3.75;;;19.20;1.00;;;;;;5052669;28;20243;-79
2023/10/11 09:14:22;;;;;;;5.63;3.25;;;19.10;1.00;;;;;;5052000;28;20529;-79
2023/10/11 09:16:49;;;;;;;7.00;3.57;;;19.10;99.90;;;;;;5052449;28;20217;-76
2023/10/11 09:19:19;;;;;;;9.35;4.10;;;19.00;8.80;;;;;;5053588;28;20207;-80
2023/10/11 09:22:02;;;;;;;6.53;3.73;;;19.00;13.20;;;;;;5051428;28;20178;-79
2023/10/11 09:24:29;;;;;;;7.07;3.50;;;19.10;1.00;;;;;;5052923;28;20181;-80
2023/10/11 09:27:19;;;;;;;8.10;3.37;;;19.20;99.90;;;;;;5053491;28;20198;-79
2023/10/11 09:29:49;;;;;;;8.70;3.70;;;19.30;1.00;;;;;;5052601;28;20182;-81
2023/10/11 09:32:27;;;;;;;7.80;3.85;;;19.50;1.00;;;;;;5052171;28;20190;-79
2023/10/11 09:34:54;;;;;;;9.13;4.00;;;19.50;1.00;;;;;;5051538;28;20176;-79
2023/10/11 09:37:20;;;;;;;6.00;3.30;;;19.70;99.90;;;;;;5052439;28;20197;-79
2023/10/11 09:39:46;;;;;;;8.43;3.50;;;19.80;1.00;;;;;;5052879;28;20162;-78
2023/10/11 09:42:13;;;;;;;6.15;3.65;;;19.80;1.00;;;;;;5052104;28;20454;-79
2023/10/11 09:44:40;;;;;;;6.55;3.65;;;20.00;37.70;;;;;;5051082;28;20583;-79
2023/10/11 09:47:18;;;;;;;8.95;3.88;;;19.90;1.00;;;;;;5051270;28;20189;-79
2023/10/11 09:49:46;;;;;;;7.75;3.58;;;19.90;99.90;;;;;;5052631;28;20174;-78
2023/10/11 09:52:17;;;;;;;8.18;3.58;;;20.00;1.00;;;;;;5050393;28;20258;-79
2023/10/11 09:54:43;;;;;;;7.97;3.60;;;20.10;1.00;;;;;;5052330;28;20200;-81
2023/10/11 09:57:27;;;;;;;9.93;3.80;;;20.10;99.90;;;;;;5051090;28;20212;-79
2023/10/11 09:59:59;;;;;;;8.50;3.72;;;20.20;1.00;;;;;;5052675;28;20173;-79
2023/10/11 10:02:34;;;;;;;7.07;3.47;;;20.30;1.00;;;;;;5051207;28;20184;-81
2023/10/11 10:05:04;;;;;;;7.47;3.88;;;20.40;1.00;;;;;;5052882;28;20234;-81
2023/10/11 10:10:06;;;;;;;10.82;3.80;;;20.50;99.90;;;;;;5052658;28;20204;-81
2023/10/11 10:12:41;;;;;;;7.28;3.83;;;20.60;99.90;;;;;;5052157;28;20244;-80
2023/10/11 10:15:20;;;;;;;9.30;3.63;;;20.70;99.90;;;;;;5052875;28;20165;-81
2023/10/11 10:18:05;;;;;;;7.80;3.70;;;20.70;99.90;;;;;;5053351;28;20181;-81
2023/10/11 10:20:34;;;;;;;9.43;3.80;;;20.90;99.90;;;;;;5052239;28;20177;-80
2023/10/11 10:23:15;;;;;;;7.57;3.40;;;21.00;1.00;;;;;;5051228;28;20177;-79
2023/10/11 10:25:48;;;;;;;8.40;3.88;;;21.00;1.00;;;;;;5052315;28;20257;-79
2023/10/11 10:28:34;;;;;;;9.23;3.72;;;21.00;1.00;;;;;;5054902;28;20193;-81
2023/10/11 10:31:09;;;;;;;6.32;3.47;;;21.20;1.00;;;;;;5054825;28;20177;-80
2023/10/11 10:33:36;;;;;;;7.55;3.90;;;21.40;1.00;;;;;;5055399;28;20169;-80
2023/10/11 10:36:28;;;;;;;9.38;3.65;;;21.40;1.00;;;;;;5056232;28;20170;-80
2023/10/11 10:39:00;;;;;;;7.20;3.60;;;21.50;99.90;;;;;;5056415;28;20702;-80
2023/10/11 10:41:32;;;;;;;8.93;4.00;;;21.60;73.70;;;;;;5055780;28;20650;-80
2023/10/11 10:44:04;;;;;;;7.47;3.25;;;21.60;1.00;;;;;;5056553;28;20189;-80
2023/10/11 10:46:31;;;;;;;7.55;3.88;;;21.80;1.00;;;;;;5054820;28;20190;-80
2023/10/11 10:48:57;;;;;;;7.22;3.55;;;21.60;1.00;;;;;;5056068;28;20177;-79
2023/10/11 10:51:25;;;;;;;6.47;3.42;;;21.70;1.00;;;;;;5055224;28;20208;-80
2023/10/11 10:53:53;;;;;;;7.40;3.50;;;21.70;1.00;;;;;;5054484;28;20253;-80
2023/10/11 10:56:22;;;;;;;9.95;3.58;;;21.80;1.00;;;;;;5054533;28;20264;-80
2023/10/11 10:58:48;;;;;;;7.28;3.60;;;22.10;1.00;;;;;;5055002;28;20256;-79
2023/10/11 11:01:13;;;;;;;9.68;3.67;;;22.30;99.90;;;;;;5055627;28;20174;-79
2023/10/11 11:03:41;;;;;;;7.22;3.85;;;22.10;99.90;;;;;;5055875;28;20185;-80
2023/10/11 11:06:11;;;;;;;7.28;4.00;;;22.20;99.90;;;;;;5054311;28;20180;-79
2023/10/11 11:08:39;;;;;;;6.90;3.70;;;22.30;99.90;;;;;;5055828;28;20173;-79
2023/10/11 11:14:13;;;;;;;8.70;3.58;;;22.50;1.00;;;;;;5013568;28;20322;-79
2023/10/11 11:16:41;;;;;;;11.55;3.88;;;22.60;1.00;;;;;;5047752;28;20198;-81
2023/10/11 11:19:17;;;;;;;8.20;3.63;;;22.60;1.00;;;;;;5055506;28;20166;-79
2023/10/11 11:21:46;;;;;;;6.50;3.60;;;22.80;1.00;;;;;;5055160;28;20180;-79
2023/10/11 11:24:27;;;;;;;8.02;3.80;;;22.90;1.00;;;;;;5055696;28;20535;-79
2023/10/11 11:26:54;;;;;;;7.50;3.70;;;22.80;99.90;;;;;;5053982;28;20247;-80
2023/10/11 11:29:32;;;;;;;5.90;3.45;;;22.70;1.00;;;;;;5054033;28;20184;-79
2023/10/11 11:31:59;;;;;;;6.25;3.42;;;22.90;1.00;;;;;;5054471;28;20212;-79
2023/10/11 11:34:34;;;;;;;7.05;3.58;;;22.90;99.90;;;;;;5053899;28;20180;-79
2023/10/11 11:37:07;;;;;;;6.93;3.47;;;22.90;1.00;;;;;;5053790;28;20673;-79
2023/10/11 11:42:07;;;;;;;9.70;3.45;;;23.30;99.90;;;;;;5054333;28;20170;-79
2023/10/11 11:44:33;;;;;;;8.35;3.80;;;23.40;99.90;;;;;;5053785;28;20637;-79
2023/10/11 11:47:05;;;;;;;8.63;3.85;;;23.50;99.90;;;;;;5054816;28;20197;-79
2023/10/11 11:49:33;;;;;;;8.50;3.58;;;23.30;99.90;;;;;;5053656;28;20173;-79
2023/10/11 11:51:59;;;;;;;8.68;3.67;;;23.40;99.90;;;;;;5053046;28;20288;-80
2023/10/11 11:54:31;;;;;;;12.20;3.63;;;23.60;99.90;;;;;;5054827;28;20248;-79
2023/10/11 11:56:57;;;;;;;6.22;3.40;;;23.70;99.90;;;;;;5054849;28;20209;-79
2023/10/11 11:59:24;;;;;;;7.97;3.33;;;23.80;99.90;;;;;;5053252;28;20231;-79
2023/10/11 12:01:56;;;;;;;6.28;3.40;;;24.00;71.80;;;;;;5053132;28;20200;-79
2023/10/11 12:04:29;;;;;;;8.18;3.50;;;24.20;99.90;;;;;;5054361;28;20645;-79
2023/10/11 12:06:58;;;;;;;9.05;3.70;;;24.10;1.00;;;;;;5054106;28;20570;-78
2023/10/11 12:09:31;;;;;;;7.07;3.50;;;24.10;91.90;;;;;;5054258;28;20197;-77
2023/10/11 12:12:02;;;;;;;8.68;3.58;;;24.50;99.20;;;;;;5053563;28;20185;-78
2023/10/11 12:14:28;;;;;;;7.25;3.53;;;24.70;1.00;;;;;;5053303;28;20637;-78
2023/10/11 12:16:55;;;;;;;7.38;3.72;;;24.60;1.00;;;;;;5052606;28;20700;-78
2023/10/11 12:19:21;;;;;;;7.30;3.40;;;24.40;1.00;;;;;;5053881;28;20185;-77
2023/10/11 12:21:47;;;;;;;9.50;3.70;;;24.50;1.00;;;;;;5052446;28;20665;-81
2023/10/11 12:24:12;;;;;;;7.93;4.13;;;24.50;1.00;;;;;;5052831;28;20197;-79
2023/10/11 12:26:42;;;;;;;5.32;3.33;;;24.50;1.00;;;;;;5053760;28;20186;-77
2023/10/11 12:29:18;;;;;;;6.07;3.47;;;24.40;1.00;;;;;;5052600;28;20264;-78
2023/10/11 12:31:44;;;;;;;7.93;3.63;;;24.20;1.00;;;;;;5051765;28;20224;-77
2023/10/11 12:34:10;;;;;;;7.45;3.72;;;24.50;1.00;;;;;;5053822;28;20652;-77
2023/10/11 12:36:38;;;;;;;6.53;3.45;;;24.70;1.00;;;;;;5053633;28;20213;-77
2023/10/11 12:39:08;;;;;;;6.65;3.70;;;24.70;1.00;;;;;;5053502;28;20174;-77
2023/10/11 12:41:36;;;;;;;6.60;3.30;;;24.90;1.00;;;;;;5051911;28;20173;-79
2023/10/11 12:44:03;;;;;;;10.35;3.67;;;25.00;1.00;;;;;;5052244;28;20660;-79
2023/10/11 12:46:29;;;;;;;5.85;3.28;;;25.20;1.00;;;;;;5053505;28;20193;-82
2023/10/11 12:48:54;;;;;;;6.38;3.45;;;24.90;1.00;;;;;;5052526;28;20174;-78
2023/10/11 12:51:22;;;;;;;8.43;3.45;;;24.90;1.00;;;;;;5050541;28;20681;-79
2023/10/11 12:53:47;;;;;;;5.90;3.30;;;25.00;1.00;;;;;;5052066;28;20180;-78
2023/10/11 12:56:14;;;;;;;6.40;3.53;;;25.00;1.00;;;;;;5053066;28;20170;-76
2023/10/11 12:58:40;;;;;;;6.65;3.75;;;25.00;1.00;;;;;;5054216;28;20175;-79
2023/10/11 13:01:11;;;;;;;6.78;3.72;;;25.00;1.00;;;;;;5052988;28;20548;-80
2023/10/11 13:03:38;;;;;;;7.90;3.72;;;25.00;1.00;;;;;;5052717;28;20170;-80
2023/10/11 13:06:04;;;;;;;5.90;3.67;;;25.20;1.00;;;;;;5053249;28;20516;-81
2023/10/11 13:08:32;;;;;;;5.47;3.55;;;25.30;1.00;;;;;;5053232;28;20166;-79
2023/10/11 13:11:00;;;;;;;9.93;3.97;;;24.90;1.00;;;;;;5052417;28;20193;-79
2023/10/11 13:13:27;;;;;;;6.18;3.30;;;24.80;1.00;;;;;;5052123;28;20178;-80
2023/10/11 13:15:59;;;;;;;8.52;3.80;;;25.00;1.00;;;;;;5051890;28;20185;-78
2023/10/11 13:18:45;;;;;;;9.45;3.38;;;24.90;1.00;;;;;;5052974;28;20200;-79
2023/10/11 13:21:16;;;;;;;7.63;3.50;;;24.70;1.00;;;;;;5051372;28;20166;-79
2023/10/11 13:23:43;;;;;;;7.20;3.53;;;24.70;1.00;;;;;;5052832;28;20185;-79
2023/10/11 13:26:09;;;;;;;10.00;4.00;;;24.90;1.00;;;;;;5052713;28;20583;-79
2023/10/11 13:28:40;;;;;;;11.60;3.85;;;25.00;1.00;;;;;;5052691;28;20260;-79
2023/10/11 13:31:09;;;;;;;6.47;3.70;;;25.00;1.00;;;;;;5050899;28;20174;-79
2023/10/11 13:33:35;;;;;;;8.65;3.63;;;24.90;1.00;;;;;;5051601;28;20169;-80
2023/10/11 13:36:05;;;;;;;8.07;3.75;;;24.80;1.00;;;;;;5052436;28;20180;-79
2023/10/11 13:38:31;;;;;;;8.60;3.42;;;24.80;1.00;;;;;;5052628;28;20173;-79
2023/10/11 13:41:01;;;;;;;7.38;3.47;;;25.00;1.00;;;;;;5051589;28;20170;-79
2023/10/11 13:43:27;;;;;;;6.68;3.60;;;24.90;1.00;;;;;;5053421;28;20176;-79
2023/10/11 13:46:06;;;;;;;8.27;3.53;;;24.70;1.00;;;;;;5053761;28;20161;-80
2023/10/11 13:48:39;;;;;;;7.40;3.33;;;24.60;1.00;;;;;;5054365;28;20180;-79
2023/10/11 13:51:16;;;;;;;7.78;3.50;;;24.80;1.00;;;;;;5053497;28;20170;-80
2023/10/11 13:53:42;;;;;;;8.90;3.85;;;24.80;1.00;;;;;;5054375;28;20208;-81
2023/10/11 13:56:31;;;;;;;7.20;3.80;;;24.70;1.00;;;;;;5052410;28;20173;-80
2023/10/11 13:58:57;;;;;;;8.35;3.90;;;24.60;1.00;;;;;;5053867;28;20257;-79
2023/10/11 14:01:43;;;;;;;;;;;;;;;;;;;;;
2023/10/11 14:03:55;;;;;;;9.10;4.13;;;24.50;1.00;;;;;;5053372;28;20261;-79
2023/10/11 14:06:42;;;;;;;9.93;3.25;;;24.50;1.00;;;;;;5052883;28;20247;-80